createdAt,value
2022-08-05T00:01:35.894Z,97868.54
2022-08-05T00:04:08.208Z,97865.83
2022-08-05T00:06:36.649Z,97866.70
2022-08-05T00:09:12.774Z,97863.33
2022-08-05T00:11:49.375Z,97864.70
2022-08-05T00:14:27.689Z,97864.17
2022-08-05T00:16:58.030Z,97866.67
2022-08-05T00:19:33.134Z,97864.59
2022-08-05T00:22:11.306Z,97864.27
2022-08-05T00:24:42.256Z,97866.54
2022-08-05T00:27:16.500Z,97866.16
2022-08-05T00:29:45.390Z,97867.98
2022-08-05T00:32:15.490Z,97867.42
2022-08-05T00:35:04.095Z,97867.67
2022-08-05T00:37:53.086Z,97869.83
2022-08-05T00:40:26.801Z,97868.77
2022-08-05T00:42:59.170Z,97863.05
2022-08-05T00:45:38.467Z,97862.00
2022-08-05T00:48:31.420Z,97865.34
2022-08-05T00:50:59.897Z,97865.26
2022-08-05T00:54:00.396Z,97866.06
2022-08-05T00:56:25.309Z,97864.27
2022-08-05T00:58:53.656Z,97860.60
2022-08-05T01:01:42.165Z,97862.96
2022-08-05T01:04:14.126Z,97861.30
2022-08-05T01:06:48.451Z,97858.71
2022-08-05T01:09:17.416Z,97862.45
2022-08-05T01:11:56.031Z,97861.09
2022-08-05T01:14:33.520Z,97858.59
2022-08-05T01:17:05.362Z,97851.98
2022-08-05T01:20:01.440Z,97851.52
2022-08-05T01:22:47.020Z,97849.61
2022-08-05T01:25:40.106Z,97848.80
2022-08-05T01:28:19.181Z,97850.90
2022-08-05T01:31:10.600Z,97855.11
2022-08-05T01:33:53.602Z,97853.52
2022-08-05T01:36:28.265Z,97856.25
2022-08-05T01:39:01.032Z,97858.04
2022-08-05T01:41:33.783Z,97852.40
2022-08-05T01:44:03.108Z,97853.17
2022-08-05T01:46:42.579Z,97851.78
2022-08-05T01:49:22.827Z,97854.73
2022-08-05T01:51:59.041Z,97855.38
2022-08-05T01:54:45.728Z,97852.95
2022-08-05T01:58:13.082Z,97853.34
2022-08-05T02:00:12.879Z,97855.20
2022-08-05T02:02:54.283Z,97854.45
2022-08-05T02:05:30.523Z,97857.47
2022-08-05T02:08:03.473Z,97854.92
2022-08-05T02:10:40.156Z,97854.13
2022-08-05T02:13:19.137Z,97850.96
2022-08-05T02:16:06.298Z,97851.98
2022-08-05T02:19:00.178Z,97850.84
2022-08-05T02:21:43.103Z,97848.33
2022-08-05T02:24:23.153Z,97850.29
2022-08-05T02:26:56.426Z,97848.55
2022-08-05T02:29:59.496Z,97844.64
2022-08-05T02:32:23.759Z,97846.40
2022-08-05T02:35:09.694Z,97846.54
2022-08-05T02:37:47.617Z,97845.01
2022-08-05T02:40:24.467Z,97842.67
2022-08-05T02:42:55.832Z,97842.03
2022-08-05T02:45:26.532Z,97839.35
2022-08-05T02:48:06.984Z,97840.02
2022-08-05T02:50:47.190Z,97838.90
2022-08-05T02:53:19.633Z,97837.81
2022-08-05T02:55:59.650Z,97838.79
2022-08-05T02:58:30.253Z,97836.62
2022-08-05T03:01:02.576Z,97838.92
2022-08-05T03:03:34.110Z,97840.01
2022-08-05T03:06:55.961Z,97842.30
2022-08-05T03:09:15.766Z,97841.59
2022-08-05T03:11:54.641Z,97841.95
2022-08-05T03:14:26.259Z,97841.14
2022-08-05T03:16:54.639Z,97841.36
2022-08-05T03:19:34.212Z,97840.56
2022-08-05T03:22:04.994Z,97842.61
2022-08-05T03:24:33.787Z,97841.65
2022-08-05T03:27:03.823Z,97842.11
2022-08-05T03:29:45.520Z,97843.17
2022-08-05T03:32:31.022Z,97841.86
2022-08-05T03:34:59.776Z,97841.09
2022-08-05T03:37:31.440Z,97843.42
2022-08-05T03:40:15.505Z,97841.01
2022-08-05T03:42:53.597Z,97839.45
2022-08-05T03:45:23.706Z,97839.11
2022-08-05T03:47:56.856Z,97839.83
2022-08-05T03:50:45.500Z,97841.05
2022-08-05T03:55:51.935Z,97842.11
2022-08-05T03:56:50.264Z,97839.04
2022-08-05T03:59:46.919Z,97839.02
2022-08-05T04:02:38.628Z,97841.48
2022-08-05T04:05:10.076Z,97840.23
2022-08-05T04:07:53.167Z,97840.85
2022-08-05T04:10:32.152Z,97842.59
2022-08-05T04:13:08.046Z,97842.14
2022-08-05T04:15:37.239Z,97842.59
2022-08-05T04:18:09.439Z,97839.61
2022-08-05T04:20:38.599Z,97844.80
2022-08-05T04:23:12.635Z,97846.06
2022-08-05T04:25:57.759Z,97839.46
2022-08-05T04:28:30.808Z,97839.37
2022-08-05T04:31:01.520Z,97840.58
2022-08-05T04:33:54.759Z,97841.45
2022-08-05T04:36:44.824Z,97841.48
2022-08-05T04:39:07.373Z,97843.35
2022-08-05T04:41:37.715Z,97843.49
2022-08-05T04:44:09.275Z,97839.17
2022-08-05T04:46:38.983Z,97840.05
2022-08-05T04:49:12.186Z,97841.01
2022-08-05T04:51:44.343Z,97840.48
2022-08-05T04:54:14.815Z,97836.17
2022-08-05T04:56:43.627Z,97835.98
2022-08-05T04:59:22.042Z,97834.89
2022-08-05T05:02:07.946Z,97835.83
2022-08-05T05:04:44.159Z,97838.00
2022-08-05T05:07:18.447Z,97834.27
2022-08-05T05:09:52.353Z,97831.27
2022-08-05T05:12:22.320Z,97831.67
2022-08-05T05:14:51.326Z,97828.07
2022-08-05T05:17:23.807Z,97826.96
2022-08-05T05:19:56.481Z,97823.49
2022-08-05T05:22:26.794Z,97824.63
2022-08-05T05:24:56.973Z,97824.50
2022-08-05T05:27:45.767Z,97826.33
2022-08-05T05:30:29.736Z,97824.16
2022-08-05T05:33:16.227Z,97822.16
2022-08-05T05:35:47.079Z,97821.54
2022-08-05T05:38:22.925Z,97821.06
2022-08-05T05:40:57.082Z,97822.95
2022-08-05T05:43:54.484Z,97825.39
2022-08-05T05:46:17.461Z,97829.31
2022-08-05T05:48:48.678Z,97830.38
2022-08-05T05:51:24.471Z,97828.53
2022-08-05T05:53:58.898Z,97830.09
2022-08-05T05:56:32.765Z,97830.29
2022-08-05T05:59:07.647Z,97829.17
2022-08-05T06:01:39.407Z,97830.36
2022-08-05T06:04:11.554Z,97827.80
2022-08-05T06:06:42.995Z,97826.13
2022-08-05T06:09:18.203Z,97824.56
2022-08-05T06:12:02.736Z,97822.45
2022-08-05T06:14:32.130Z,97820.91
2022-08-05T06:17:22.253Z,97823.90
2022-08-05T06:19:56.756Z,97824.30
2022-08-05T06:22:33.678Z,97822.52
2022-08-05T06:25:24.509Z,97821.98
2022-08-05T06:28:11.814Z,97820.33
2022-08-05T06:30:41.347Z,97818.54
2022-08-05T06:33:10.775Z,97816.12
2022-08-05T06:36:07.469Z,97814.70
2022-08-05T06:38:35.781Z,97815.05
2022-08-05T06:41:07.764Z,97816.91
2022-08-05T06:43:58.027Z,97818.08
2022-08-05T06:46:30.032Z,97819.20
2022-08-05T06:49:01.284Z,97823.86
2022-08-05T06:51:31.303Z,97822.80
2022-08-05T06:54:01.775Z,97822.64
2022-08-05T06:56:34.354Z,97823.96
2022-08-05T06:59:08.328Z,97823.42
2022-08-05T07:01:41.503Z,97827.73
2022-08-05T07:04:11.172Z,97822.40
2022-08-05T07:06:42.348Z,97822.66
2022-08-05T07:09:10.491Z,97824.98
2022-08-05T07:11:39.869Z,97819.88
2022-08-05T07:14:30.052Z,97818.70
2022-08-05T07:17:58.404Z,97814.34
2022-08-05T07:22:42.489Z,97819.44
2022-08-05T07:25:55.120Z,97817.73
2022-08-05T07:28:05.735Z,97817.61
2022-08-05T07:30:39.015Z,97811.31
2022-08-05T07:33:16.607Z,97808.92
2022-08-05T07:36:04.910Z,97809.30
2022-08-05T07:38:43.663Z,97807.23
2022-08-05T07:42:13.205Z,97805.89
2022-08-05T07:44:14.323Z,97804.96
2022-08-05T07:46:50.130Z,97805.26
2022-08-05T07:49:20.086Z,97805.02
2022-08-05T07:51:53.662Z,97804.42
2022-08-05T07:54:31.511Z,97801.83
2022-08-05T07:57:22.718Z,97799.76
2022-08-05T07:59:53.660Z,97799.97
2022-08-05T08:02:30.938Z,97800.74
2022-08-05T08:05:16.616Z,97797.89
2022-08-05T08:07:59.686Z,97797.69
2022-08-05T08:10:30.135Z,97793.95
2022-08-05T08:12:58.892Z,97787.34
2022-08-05T08:16:33.619Z,97784.89
2022-08-05T08:18:15.371Z,97789.60
2022-08-05T08:21:02.431Z,97784.99
2022-08-05T08:24:01.282Z,97781.44
2022-08-05T08:26:29.718Z,97780.16
2022-08-05T08:29:09.755Z,97775.98
2022-08-05T08:31:50.386Z,97778.70
2022-08-05T08:34:30.305Z,97780.94
2022-08-05T08:37:04.670Z,97779.21
2022-08-05T08:39:37.763Z,97780.32
2022-08-05T08:42:34.553Z,97782.69
2022-08-05T08:45:23.752Z,97782.96
2022-08-05T08:48:06.746Z,97781.36
2022-08-05T08:51:07.449Z,97778.34
2022-08-05T08:53:37.423Z,97781.73
2022-08-05T08:56:06.602Z,97775.22
2022-08-05T08:58:43.875Z,97770.08
2022-08-05T09:01:18.388Z,97766.48
2022-08-05T09:03:55.071Z,97765.02
2022-08-05T09:06:29.853Z,97764.52
2022-08-05T09:09:01.526Z,97764.16
2022-08-05T09:11:53.341Z,97759.27
2022-08-05T09:14:59.129Z,97754.43
2022-08-05T09:17:43.040Z,97751.25
2022-08-05T09:20:05.861Z,97749.55
2022-08-05T09:23:09.177Z,97750.88
2022-08-05T09:25:59.946Z,97746.40
2022-08-05T09:28:33.825Z,97743.89
2022-08-05T09:31:43.300Z,97740.20
2022-08-05T09:33:59.818Z,97734.77
2022-08-05T09:36:54.849Z,97731.46
2022-08-05T09:39:39.238Z,97729.70
2022-08-05T09:42:24.335Z,97726.54
2022-08-05T09:45:17.642Z,97725.04
2022-08-05T09:47:55.111Z,97721.20
2022-08-05T09:50:44.592Z,97717.44
2022-08-05T09:53:22.910Z,97717.05
2022-08-05T09:56:03.764Z,97718.07
2022-08-05T09:58:33.394Z,97713.35
2022-08-05T10:01:14.844Z,97713.06
2022-08-05T10:04:19.315Z,97711.58
2022-08-05T10:06:58.822Z,97706.38
2022-08-05T10:09:29.884Z,97704.55
2022-08-05T10:12:30.547Z,97703.09
2022-08-05T10:15:25.937Z,97705.73
2022-08-05T10:18:09.343Z,97707.02
2022-08-05T10:20:42.010Z,97702.73
2022-08-05T10:23:34.776Z,97701.74
2022-08-05T10:26:04.481Z,97705.34
2022-08-05T10:28:36.760Z,97706.41
2022-08-05T10:32:49.069Z,97701.58
2022-08-05T10:33:54.454Z,97699.13
2022-08-05T10:36:25.918Z,97694.73
2022-08-05T10:39:10.033Z,97696.45
2022-08-05T10:42:05.617Z,97692.51
2022-08-05T10:44:35.231Z,97690.07
2022-08-05T10:47:25.909Z,97686.55
2022-08-05T10:50:32.526Z,97681.19
2022-08-05T10:53:01.846Z,97675.27
2022-08-05T10:55:38.434Z,97674.27
2022-08-05T10:58:20.722Z,97668.52
2022-08-05T11:00:55.245Z,97670.14
2022-08-05T11:03:31.425Z,97668.61
2022-08-05T11:06:15.108Z,97669.32
2022-08-05T11:09:24.234Z,97668.26
2022-08-05T11:12:45.351Z,97669.08
2022-08-05T11:16:00.303Z,97665.67
2022-08-05T11:18:34.501Z,97665.77
2022-08-05T11:21:06.395Z,97660.23
2022-08-05T11:24:05.470Z,97657.64
2022-08-05T11:26:40.353Z,97657.43
2022-08-05T11:29:35.325Z,97659.12
2022-08-05T11:32:29.345Z,97659.58
2022-08-05T11:34:58.040Z,97659.59
2022-08-05T11:38:36.951Z,97659.36
2022-08-05T11:41:34.330Z,97654.45
2022-08-05T11:44:12.814Z,97655.98
2022-08-05T11:47:14.086Z,97653.70
2022-08-05T11:49:49.775Z,97647.13
2022-08-05T11:52:31.061Z,97646.39
2022-08-05T11:55:07.502Z,97648.06
2022-08-05T11:58:08.121Z,97644.31
2022-08-05T12:00:31.861Z,97641.77
2022-08-05T12:03:29.086Z,97637.30
2022-08-05T12:06:06.616Z,97636.04
2022-08-05T12:08:49.949Z,97634.89
2022-08-05T12:11:24.664Z,97632.02
2022-08-05T12:14:04.229Z,97626.95
2022-08-05T12:16:35.063Z,97627.35
2022-08-05T12:19:08.914Z,97629.13
2022-08-05T12:21:48.182Z,97631.17
2022-08-05T12:24:19.634Z,97627.02
2022-08-05T12:26:50.305Z,97626.77
2022-08-05T12:29:23.878Z,97627.73
2022-08-05T12:32:02.175Z,97624.17
2022-08-05T12:34:37.202Z,97625.41
2022-08-05T12:37:17.534Z,97624.02
2022-08-05T12:39:51.953Z,97621.51
2022-08-05T12:42:25.341Z,97614.55
2022-08-05T12:45:03.599Z,97609.08
2022-08-05T12:47:38.571Z,97607.97
2022-08-05T12:50:26.675Z,97601.64
2022-08-05T12:53:00.182Z,97599.60
2022-08-05T12:55:32.614Z,97603.86
2022-08-05T12:58:49.311Z,97600.50
2022-08-05T13:02:02.673Z,97596.21
2022-08-05T13:03:41.941Z,97600.33
2022-08-05T13:06:18.234Z,97597.84
2022-08-05T13:08:51.805Z,97599.77
2022-08-05T13:11:59.725Z,97594.61
2022-08-05T13:14:35.773Z,97589.22
2022-08-05T13:17:10.523Z,97583.66
2022-08-05T13:19:51.900Z,97579.92
2022-08-05T13:22:28.058Z,97582.11
2022-08-05T13:25:05.452Z,97581.29
2022-08-05T13:27:40.221Z,97577.84
2022-08-05T13:30:33.560Z,97569.41
2022-08-05T13:33:01.262Z,97570.38
2022-08-05T13:35:43.191Z,97571.64
2022-08-05T13:38:31.057Z,97567.67
2022-08-05T13:41:04.558Z,97566.02
2022-08-05T13:43:45.825Z,97565.73
2022-08-05T13:46:43.987Z,97562.95
2022-08-05T13:49:12.871Z,97560.34
2022-08-05T13:51:45.850Z,97557.10
2022-08-05T13:54:17.117Z,97556.30
2022-08-05T13:56:50.916Z,97556.77
2022-08-05T13:59:24.392Z,97555.23
2022-08-05T14:02:00.317Z,97551.62
2022-08-05T14:04:51.107Z,97549.46
2022-08-05T14:07:59.742Z,97547.86
2022-08-05T14:10:28.889Z,97547.55
2022-08-05T14:13:00.118Z,97543.78
2022-08-05T14:16:07.267Z,97544.00
2022-08-05T14:18:23.435Z,97543.23
2022-08-05T14:20:54.903Z,97543.75
2022-08-05T14:23:25.583Z,97538.81
2022-08-05T14:25:58.169Z,97536.73
2022-08-05T14:28:29.193Z,97532.89
2022-08-05T14:30:59.160Z,97529.64
2022-08-05T14:33:27.286Z,97529.45
2022-08-05T14:36:02.133Z,97526.04
2022-08-05T14:38:34.033Z,97523.39
2022-08-05T14:41:07.515Z,97523.26
2022-08-05T14:43:59.540Z,97523.25
2022-08-05T14:46:29.759Z,97520.61
2022-08-05T14:49:06.949Z,97524.27
2022-08-05T14:51:38.470Z,97521.20
2022-08-05T14:54:28.479Z,97519.39
2022-08-05T14:56:58.989Z,97516.98
2022-08-05T14:59:29.803Z,97514.30
2022-08-05T15:02:14.828Z,97509.91
2022-08-05T15:04:47.655Z,97511.47
2022-08-05T15:08:09.183Z,97509.69
2022-08-05T15:10:05.838Z,97508.41
2022-08-05T15:12:58.028Z,97507.20
2022-08-05T15:15:55.553Z,97506.86
2022-08-05T15:18:17.295Z,97504.31
2022-08-05T15:20:46.263Z,97500.48
2022-08-05T15:23:15.863Z,97498.18
2022-08-05T15:25:51.916Z,97497.39
2022-08-05T15:28:27.741Z,97496.83
2022-08-05T15:30:57.385Z,97492.80
2022-08-05T15:34:04.678Z,97491.27
2022-08-05T15:36:17.205Z,97492.68
2022-08-05T15:40:41.721Z,97487.48
2022-08-05T15:41:58.564Z,97484.59
2022-08-05T15:44:30.416Z,97480.01
2022-08-05T15:47:01.957Z,97479.75
2022-08-05T15:49:48.203Z,97484.23
2022-08-05T15:52:51.851Z,97486.63
2022-08-05T15:55:15.739Z,97483.25
2022-08-05T15:57:48.974Z,97481.73
2022-08-05T16:00:26.159Z,97482.84
2022-08-05T16:03:03.640Z,97479.28
2022-08-05T16:05:32.026Z,97477.63
2022-08-05T16:08:00.320Z,97479.16
2022-08-05T16:10:29.515Z,97477.41
2022-08-05T16:12:59.308Z,97475.03
2022-08-05T16:15:32.510Z,97474.73
2022-08-05T16:18:04.047Z,97470.79
2022-08-05T16:20:32.950Z,97470.28
2022-08-05T16:23:03.741Z,97471.33
2022-08-05T16:25:33.964Z,97469.34
2022-08-05T16:28:09.666Z,97467.18
2022-08-05T16:30:38.848Z,97466.11
2022-08-05T16:33:06.868Z,97467.85
2022-08-05T16:35:41.978Z,97467.59
2022-08-05T16:38:23.877Z,97465.63
2022-08-05T16:41:00.421Z,97467.91
2022-08-05T16:43:34.739Z,97468.13
2022-08-05T16:46:12.670Z,97465.78
2022-08-05T16:48:52.187Z,97466.98
2022-08-05T16:51:20.876Z,97471.35
2022-08-05T16:54:06.050Z,97468.82
2022-08-05T16:56:41.674Z,97468.67
2022-08-05T16:59:10.648Z,97469.42
2022-08-05T17:01:52.934Z,97470.59
2022-08-05T17:04:26.056Z,97468.52
2022-08-05T17:07:03.133Z,97468.80
2022-08-05T17:09:55.964Z,97471.69
2022-08-05T17:12:22.606Z,97475.66
2022-08-05T17:15:09.309Z,97476.73
2022-08-05T17:17:42.135Z,97482.45
2022-08-05T17:20:14.651Z,97482.81
2022-08-05T17:22:43.102Z,97484.21
2022-08-05T17:25:34.074Z,97487.27
2022-08-05T17:28:01.512Z,97487.98
2022-08-05T17:30:29.639Z,97493.17
2022-08-05T17:32:57.812Z,97491.23
2022-08-05T17:35:25.986Z,97490.71
2022-08-05T17:38:04.835Z,97489.82
2022-08-05T17:40:33.291Z,97486.89
2022-08-05T17:43:02.182Z,97491.24
2022-08-05T17:45:38.318Z,97491.96
2022-08-05T17:48:08.288Z,97490.70
2022-08-05T17:50:36.740Z,97492.00
2022-08-05T17:53:08.666Z,97494.09
2022-08-05T17:55:39.564Z,97496.15
2022-08-05T17:58:12.523Z,97496.60
2022-08-05T18:00:50.813Z,97495.20
2022-08-05T18:03:48.481Z,97496.66
2022-08-05T18:06:12.341Z,97496.65
2022-08-05T18:08:52.206Z,97498.86
2022-08-05T18:11:23.795Z,97506.16
2022-08-05T18:13:54.738Z,97509.42
2022-08-05T18:16:23.818Z,97510.80
2022-08-05T18:18:52.036Z,97509.87
2022-08-05T18:21:22.898Z,97511.20
2022-08-05T18:23:54.597Z,97517.33
2022-08-05T18:26:27.645Z,97518.89
2022-08-05T18:28:58.512Z,97517.63
2022-08-05T18:31:35.196Z,97520.33
2022-08-05T18:34:06.190Z,97521.41
2022-08-05T18:36:41.317Z,97527.79
2022-08-05T18:39:42.539Z,97529.88
2022-08-05T18:42:06.202Z,97533.27
2022-08-05T18:44:49.354Z,97535.94
2022-08-05T18:47:26.394Z,97537.45
2022-08-05T18:50:15.727Z,97539.96
2022-08-05T18:52:51.451Z,97540.92
2022-08-05T18:55:22.319Z,97542.38
2022-08-05T18:57:53.492Z,97542.26
2022-08-05T19:00:28.591Z,97541.96
2022-08-05T19:03:03.860Z,97541.62
2022-08-05T19:06:12.425Z,97546.52
2022-08-05T19:08:30.285Z,97544.82
2022-08-05T19:11:04.842Z,97546.17
2022-08-05T19:13:36.689Z,97548.61
2022-08-05T19:16:25.198Z,97545.48
2022-08-05T19:18:56.775Z,97546.15
2022-08-05T19:21:27.373Z,97548.45
2022-08-05T19:24:05.510Z,97545.77
2022-08-05T19:26:44.039Z,97543.35
2022-08-05T19:29:26.817Z,97543.98
2022-08-05T19:32:11.254Z,97543.45
2022-08-05T19:34:40.676Z,97542.95
2022-08-05T19:37:10.858Z,97542.73
2022-08-05T19:39:45.582Z,97543.33
2022-08-05T19:42:35.875Z,97544.64
2022-08-05T19:45:06.460Z,97550.10
2022-08-05T19:47:37.500Z,97554.36
2022-08-05T19:50:11.911Z,97552.43
2022-08-05T19:52:41.039Z,97554.05
2022-08-05T19:56:14.451Z,97555.38
2022-08-05T19:58:19.592Z,97552.11
2022-08-05T20:00:46.741Z,97555.73
2022-08-05T20:03:15.441Z,97559.52
2022-08-05T20:05:51.384Z,97558.45
2022-08-05T20:08:20.452Z,97556.88
2022-08-05T20:10:54.023Z,97554.86
2022-08-05T20:13:30.116Z,97554.45
2022-08-05T20:16:10.977Z,97551.17
2022-08-05T20:18:39.719Z,97550.79
2022-08-05T20:21:08.912Z,97552.90
2022-08-05T20:23:51.345Z,97551.88
2022-08-05T20:26:24.833Z,97549.35
2022-08-05T20:28:56.915Z,97552.34
2022-08-05T20:31:37.299Z,97550.98
2022-08-05T20:34:16.167Z,97551.70
2022-08-05T20:36:45.573Z,97547.42
2022-08-05T20:39:16.655Z,97548.56
2022-08-05T20:41:47.908Z,97552.42
2022-08-05T20:44:29.498Z,97553.90
2022-08-05T20:47:05.253Z,97555.02
2022-08-05T20:49:38.127Z,97554.02
2022-08-05T20:52:08.959Z,97555.52
2022-08-05T20:54:42.805Z,97561.01
2022-08-05T20:57:14.341Z,97564.28
2022-08-05T21:00:10.650Z,97555.00
2022-08-05T21:02:31.108Z,97551.44
2022-08-05T21:04:59.317Z,97549.78
2022-08-05T21:07:45.607Z,97551.14
2022-08-05T21:10:18.978Z,97554.30
2022-08-05T21:13:08.897Z,97551.20
2022-08-05T21:15:37.241Z,97548.65
2022-08-05T21:18:05.422Z,97547.18
2022-08-05T21:20:34.199Z,97540.80
2022-08-05T21:23:02.896Z,97544.46
2022-08-05T21:25:33.648Z,97546.70
2022-08-05T21:28:03.523Z,97548.88
2022-08-05T21:30:31.922Z,97554.14
2022-08-05T21:33:01.822Z,97555.56
2022-08-05T21:35:55.507Z,97557.12
2022-08-05T21:38:19.382Z,97559.04
2022-08-05T21:40:47.560Z,97562.01
2022-08-05T21:43:17.737Z,97563.38
2022-08-05T21:45:57.972Z,97567.88
2022-08-05T21:48:29.278Z,97567.95
2022-08-05T21:50:59.932Z,97568.26
2022-08-05T21:53:28.190Z,97569.33
2022-08-05T21:56:16.161Z,97572.79
2022-08-05T21:58:57.042Z,97573.64
2022-08-05T22:01:26.579Z,97573.25
2022-08-05T22:03:55.202Z,97572.70
2022-08-05T22:06:35.332Z,97576.23
2022-08-05T22:09:14.754Z,97576.23
2022-08-05T22:11:47.250Z,97582.37
2022-08-05T22:14:35.340Z,97583.26
2022-08-05T22:17:06.700Z,97585.81
2022-08-05T22:20:00.644Z,97587.11
2022-08-05T22:22:28.038Z,97585.92
2022-08-05T22:25:21.190Z,97583.80
2022-08-05T22:28:11.098Z,97586.96
2022-08-05T22:30:55.834Z,97585.51
2022-08-05T22:33:57.195Z,97586.67
2022-08-05T22:36:17.840Z,97584.33
2022-08-05T22:38:48.149Z,97580.11
2022-08-05T22:42:05.522Z,97582.77
2022-08-05T22:44:09.110Z,97580.55
2022-08-05T22:46:40.206Z,97576.30
2022-08-05T22:49:12.138Z,97574.84
2022-08-05T22:52:05.350Z,97574.23
2022-08-05T22:54:37.133Z,97575.33
2022-08-05T22:57:07.230Z,97575.20
2022-08-05T22:59:48.545Z,97573.81
2022-08-05T23:02:29.226Z,97570.92
2022-08-05T23:05:01.529Z,97571.02
2022-08-05T23:07:45.364Z,97571.79
2022-08-05T23:10:19.860Z,97573.56
2022-08-05T23:12:51.220Z,97575.02
2022-08-05T23:15:20.055Z,97575.93
2022-08-05T23:18:00.433Z,97571.16
2022-08-05T23:20:32.194Z,97572.46
2022-08-05T23:23:05.991Z,97573.28
2022-08-05T23:25:51.635Z,97568.14
2022-08-05T23:28:27.736Z,97567.67
2022-08-05T23:31:16.728Z,97566.55
2022-08-05T23:34:04.083Z,97565.04
2022-08-05T23:36:38.686Z,97560.98
2022-08-05T23:39:10.109Z,97560.96
2022-08-05T23:41:48.604Z,97560.65
2022-08-05T23:44:17.181Z,97562.41
2022-08-05T23:46:48.327Z,97565.61
2022-08-05T23:49:23.599Z,97568.98
2022-08-05T23:52:12.039Z,97569.58
2022-08-05T23:54:46.234Z,97566.42
2022-08-05T23:57:14.410Z,97563.85
